sensor_id;sensor_type;location;lat;lon;timestamp;P1;durP1;ratioP1;P2;durP2;ratioP2
56073;SDS011;41950;55.840;37.442;2023-02-03T00:01:43;25.58;;;16.88;;
56073;SDS011;41950;55.840;37.442;2023-02-03T00:04:08;24.65;;;17.35;;
56073;SDS011;41950;55.840;37.442;2023-02-03T00:06:34;27.13;;;19.65;;
56073;SDS011;41950;55.840;37.442;2023-02-03T00:09:00;26.92;;;17.00;;
56073;SDS011;41950;55.840;37.442;2023-02-03T00:11:27;25.30;;;18.27;;
56073;SDS011;41950;55.840;37.442;2023-02-03T00:13:54;25.77;;;16.35;;
56073;SDS011;41950;55.840;37.442;2023-02-03T00:16:20;25.85;;;17.38;;
56073;SDS011;41950;55.840;37.442;2023-02-03T00:18:46;27.05;;;17.88;;
56073;SDS011;41950;55.840;37.442;2023-02-03T00:21:11;25.55;;;16.95;;
56073;SDS011;41950;55.840;37.442;2023-02-03T00:23:39;24.00;;;17.05;;
56073;SDS011;41950;55.840;37.442;2023-02-03T00:26:09;25.73;;;17.30;;
56073;SDS011;41950;55.840;37.442;2023-02-03T00:28:36;27.10;;;16.98;;
56073;SDS011;41950;55.840;37.442;2023-02-03T00:31:02;28.42;;;18.95;;
56073;SDS011;41950;55.840;37.442;2023-02-03T00:33:28;28.15;;;18.50;;
56073;SDS011;41950;55.840;37.442;2023-02-03T00:35:54;24.00;;;16.15;;
56073;SDS011;41950;55.840;37.442;2023-02-03T00:38:20;25.80;;;18.65;;
56073;SDS011;41950;55.840;37.442;2023-02-03T00:40:52;24.70;;;17.65;;
56073;SDS011;41950;55.840;37.442;2023-02-03T00:43:18;24.67;;;18.00;;
56073;SDS011;41950;55.840;37.442;2023-02-03T00:45:44;27.50;;;16.20;;
56073;SDS011;41950;55.840;37.442;2023-02-03T00:48:10;24.42;;;15.35;;
56073;SDS011;41950;55.840;37.442;2023-02-03T00:50:35;24.05;;;17.38;;
56073;SDS011;41950;55.840;37.442;2023-02-03T00:53:01;27.30;;;17.15;;
56073;SDS011;41950;55.840;37.442;2023-02-03T00:55:27;25.02;;;16.23;;
56073;SDS011;41950;55.840;37.442;2023-02-03T00:57:52;23.92;;;16.40;;
56073;SDS011;41950;55.840;37.442;2023-02-03T01:00:18;27.25;;;17.63;;
56073;SDS011;41950;55.840;37.442;2023-02-03T01:02:45;25.25;;;16.27;;
56073;SDS011;41950;55.840;37.442;2023-02-03T01:05:10;24.95;;;15.27;;
56073;SDS011;41950;55.840;37.442;2023-02-03T01:07:36;25.08;;;17.30;;
56073;SDS011;41950;55.840;37.442;2023-02-03T01:10:02;26.52;;;17.95;;
56073;SDS011;41950;55.840;37.442;2023-02-03T01:12:29;25.70;;;17.73;;
56073;SDS011;41950;55.840;37.442;2023-02-03T01:14:55;26.38;;;17.35;;
56073;SDS011;41950;55.840;37.442;2023-02-03T01:17:21;26.83;;;18.20;;
56073;SDS011;41950;55.840;37.442;2023-02-03T01:19:47;27.83;;;16.92;;
56073;SDS011;41950;55.840;37.442;2023-02-03T01:22:14;27.40;;;18.08;;
56073;SDS011;41950;55.840;37.442;2023-02-03T01:24:40;27.48;;;17.25;;
56073;SDS011;41950;55.840;37.442;2023-02-03T01:27:05;26.05;;;17.38;;
56073;SDS011;41950;55.840;37.442;2023-02-03T01:29:31;27.23;;;17.70;;
56073;SDS011;41950;55.840;37.442;2023-02-03T01:31:56;25.52;;;17.55;;
56073;SDS011;41950;55.840;37.442;2023-02-03T01:34:22;27.55;;;18.73;;
56073;SDS011;41950;55.840;37.442;2023-02-03T01:36:48;28.52;;;19.13;;
56073;SDS011;41950;55.840;37.442;2023-02-03T01:39:13;26.77;;;18.08;;
56073;SDS011;41950;55.840;37.442;2023-02-03T01:41:39;25.15;;;17.00;;
56073;SDS011;41950;55.840;37.442;2023-02-03T01:47:10;26.08;;;17.98;;
56073;SDS011;41950;55.840;37.442;2023-02-03T01:49:38;28.77;;;17.77;;
56073;SDS011;41950;55.840;37.442;2023-02-03T01:52:07;25.73;;;16.35;;
56073;SDS011;41950;55.840;37.442;2023-02-03T01:54:34;27.25;;;17.27;;
56073;SDS011;41950;55.840;37.442;2023-02-03T01:57:05;28.10;;;17.27;;
56073;SDS011;41950;55.840;37.442;2023-02-03T02:02:13;28.80;;;18.45;;
56073;SDS011;41950;55.840;37.442;2023-02-03T02:04:45;30.33;;;18.67;;
56073;SDS011;41950;55.840;37.442;2023-02-03T02:07:17;28.88;;;17.98;;
56073;SDS011;41950;55.840;37.442;2023-02-03T02:09:43;27.02;;;17.27;;
56073;SDS011;41950;55.840;37.442;2023-02-03T02:12:10;28.13;;;20.15;;
56073;SDS011;41950;55.840;37.442;2023-02-03T02:14:36;29.23;;;19.17;;
56073;SDS011;41950;55.840;37.442;2023-02-03T02:34:13;28.98;;;19.17;;
56073;SDS011;41950;55.840;37.442;2023-02-03T02:39:55;28.55;;;17.13;;
56073;SDS011;41950;55.840;37.442;2023-02-03T02:45:24;29.58;;;18.13;;
56073;SDS011;41950;55.840;37.442;2023-02-03T02:47:56;32.28;;;19.02;;
56073;SDS011;41950;55.840;37.442;2023-02-03T02:50:29;28.90;;;17.67;;
56073;SDS011;41950;55.840;37.442;2023-02-03T02:52:58;34.05;;;20.92;;
56073;SDS011;41950;55.840;37.442;2023-02-03T02:55:29;32.78;;;19.88;;
56073;SDS011;41950;55.840;37.442;2023-02-03T02:58:00;32.83;;;21.42;;
56073;SDS011;41950;55.840;37.442;2023-02-03T03:00:32;31.15;;;19.30;;
56073;SDS011;41950;55.840;37.442;2023-02-03T03:03:33;31.42;;;19.13;;
56073;SDS011;41950;55.840;37.442;2023-02-03T03:05:53;31.00;;;18.52;;
56073;SDS011;41950;55.840;37.442;2023-02-03T03:08:22;29.80;;;18.35;;
56073;SDS011;41950;55.840;37.442;2023-02-03T03:10:53;30.75;;;20.60;;
56073;SDS011;41950;55.840;37.442;2023-02-03T03:13:22;31.88;;;20.55;;
56073;SDS011;41950;55.840;37.442;2023-02-03T03:15:52;30.27;;;19.52;;
56073;SDS011;41950;55.840;37.442;2023-02-03T03:18:22;31.10;;;19.67;;
56073;SDS011;41950;55.840;37.442;2023-02-03T03:20:53;29.58;;;19.00;;
56073;SDS011;41950;55.840;37.442;2023-02-03T03:23:26;30.42;;;18.98;;
56073;SDS011;41950;55.840;37.442;2023-02-03T03:25:58;33.53;;;21.08;;
56073;SDS011;41950;55.840;37.442;2023-02-03T03:28:51;28.45;;;18.80;;
56073;SDS011;41950;55.840;37.442;2023-02-03T03:31:31;25.30;;;17.83;;
56073;SDS011;41950;55.840;37.442;2023-02-03T03:33:57;30.33;;;18.48;;
56073;SDS011;41950;55.840;37.442;2023-02-03T03:36:27;29.23;;;19.52;;
56073;SDS011;41950;55.840;37.442;2023-02-03T03:41:50;30.08;;;19.63;;
56073;SDS011;41950;55.840;37.442;2023-02-03T03:44:36;32.60;;;21.60;;
56073;SDS011;41950;55.840;37.442;2023-02-03T03:47:16;33.33;;;21.00;;
56073;SDS011;41950;55.840;37.442;2023-02-03T03:49:49;29.60;;;19.10;;
56073;SDS011;41950;55.840;37.442;2023-02-03T03:52:17;30.20;;;20.35;;
56073;SDS011;41950;55.840;37.442;2023-02-03T03:54:48;28.88;;;18.77;;
56073;SDS011;41950;55.840;37.442;2023-02-03T03:57:23;17.67;;;10.48;;
56073;SDS011;41950;55.840;37.442;2023-02-03T03:59:54;27.55;;;18.05;;
56073;SDS011;41950;55.840;37.442;2023-02-03T04:02:20;28.45;;;17.60;;
56073;SDS011;41950;55.840;37.442;2023-02-03T04:04:48;29.45;;;18.70;;
56073;SDS011;41950;55.840;37.442;2023-02-03T04:07:15;31.38;;;19.50;;
56073;SDS011;41950;55.840;37.442;2023-02-03T04:09:41;30.25;;;18.20;;
56073;SDS011;41950;55.840;37.442;2023-02-03T04:12:16;25.73;;;15.95;;
56073;SDS011;41950;55.840;37.442;2023-02-03T04:14:47;31.02;;;20.52;;
56073;SDS011;41950;55.840;37.442;2023-02-03T04:17:12;30.55;;;20.02;;
56073;SDS011;41950;55.840;37.442;2023-02-03T04:19:38;31.67;;;18.90;;
56073;SDS011;41950;55.840;37.442;2023-02-03T04:22:03;29.40;;;18.77;;
56073;SDS011;41950;55.840;37.442;2023-02-03T04:24:29;31.02;;;20.50;;
56073;SDS011;41950;55.840;37.442;2023-02-03T04:26:55;35.00;;;19.95;;
56073;SDS011;41950;55.840;37.442;2023-02-03T04:29:20;30.63;;;19.67;;
56073;SDS011;41950;55.840;37.442;2023-02-03T04:31:46;35.75;;;21.35;;
56073;SDS011;41950;55.840;37.442;2023-02-03T04:34:11;27.48;;;17.65;;
56073;SDS011;41950;55.840;37.442;2023-02-03T04:36:37;28.52;;;17.48;;
56073;SDS011;41950;55.840;37.442;2023-02-03T04:39:03;28.95;;;18.65;;
56073;SDS011;41950;55.840;37.442;2023-02-03T04:41:29;30.75;;;19.52;;
56073;SDS011;41950;55.840;37.442;2023-02-03T04:43:54;31.60;;;19.65;;
56073;SDS011;41950;55.840;37.442;2023-02-03T04:46:20;31.67;;;20.40;;
56073;SDS011;41950;55.840;37.442;2023-02-03T04:48:46;31.33;;;19.98;;
56073;SDS011;41950;55.840;37.442;2023-02-03T04:51:12;31.65;;;18.10;;
56073;SDS011;41950;55.840;37.442;2023-02-03T04:53:37;31.63;;;20.80;;
56073;SDS011;41950;55.840;37.442;2023-02-03T04:56:03;29.02;;;19.17;;
56073;SDS011;41950;55.840;37.442;2023-02-03T04:58:29;28.70;;;19.58;;
56073;SDS011;41950;55.840;37.442;2023-02-03T05:00:55;33.50;;;20.17;;
56073;SDS011;41950;55.840;37.442;2023-02-03T05:03:20;31.08;;;20.00;;
56073;SDS011;41950;55.840;37.442;2023-02-03T05:05:47;30.88;;;19.58;;
56073;SDS011;41950;55.840;37.442;2023-02-03T05:08:13;32.50;;;19.52;;
56073;SDS011;41950;55.840;37.442;2023-02-03T05:10:39;28.85;;;17.50;;
56073;SDS011;41950;55.840;37.442;2023-02-03T05:13:05;29.58;;;19.08;;
56073;SDS011;41950;55.840;37.442;2023-02-03T05:15:31;28.50;;;18.17;;
56073;SDS011;41950;55.840;37.442;2023-02-03T05:17:57;25.55;;;14.88;;
56073;SDS011;41950;55.840;37.442;2023-02-03T05:20:25;27.67;;;16.98;;
56073;SDS011;41950;55.840;37.442;2023-02-03T05:22:52;28.60;;;18.17;;
56073;SDS011;41950;55.840;37.442;2023-02-03T05:25:17;28.83;;;18.98;;
56073;SDS011;41950;55.840;37.442;2023-02-03T05:27:43;31.02;;;18.70;;
56073;SDS011;41950;55.840;37.442;2023-02-03T05:30:09;27.08;;;19.20;;
56073;SDS011;41950;55.840;37.442;2023-02-03T05:32:35;27.25;;;18.35;;
56073;SDS011;41950;55.840;37.442;2023-02-03T05:35:01;28.30;;;18.20;;
56073;SDS011;41950;55.840;37.442;2023-02-03T05:37:28;25.70;;;17.17;;
56073;SDS011;41950;55.840;37.442;2023-02-03T05:39:54;27.20;;;16.85;;
56073;SDS011;41950;55.840;37.442;2023-02-03T05:42:44;27.55;;;18.33;;
56073;SDS011;41950;55.840;37.442;2023-02-03T05:45:11;27.20;;;17.60;;
56073;SDS011;41950;55.840;37.442;2023-02-03T05:47:37;27.13;;;17.55;;
56073;SDS011;41950;55.840;37.442;2023-02-03T05:50:02;24.58;;;17.10;;
56073;SDS011;41950;55.840;37.442;2023-02-03T05:52:29;24.48;;;16.75;;
56073;SDS011;41950;55.840;37.442;2023-02-03T05:54:56;26.95;;;16.98;;
56073;SDS011;41950;55.840;37.442;2023-02-03T05:57:22;27.55;;;16.98;;
56073;SDS011;41950;55.840;37.442;2023-02-03T05:59:47;27.65;;;16.48;;
56073;SDS011;41950;55.840;37.442;2023-02-03T06:02:14;27.05;;;16.75;;
56073;SDS011;41950;55.840;37.442;2023-02-03T06:04:41;25.90;;;16.75;;
56073;SDS011;41950;55.840;37.442;2023-02-03T06:07:06;22.85;;;15.63;;
56073;SDS011;41950;55.840;37.442;2023-02-03T06:09:32;23.42;;;15.27;;
56073;SDS011;41950;55.840;37.442;2023-02-03T06:11:58;23.20;;;14.45;;
56073;SDS011;41950;55.840;37.442;2023-02-03T06:14:23;23.92;;;16.23;;
56073;SDS011;41950;55.840;37.442;2023-02-03T06:16:49;27.42;;;18.98;;
56073;SDS011;41950;55.840;37.442;2023-02-03T06:19:15;25.80;;;16.02;;
56073;SDS011;41950;55.840;37.442;2023-02-03T06:21:41;25.77;;;16.73;;
56073;SDS011;41950;55.840;37.442;2023-02-03T06:24:08;24.33;;;14.90;;
56073;SDS011;41950;55.840;37.442;2023-02-03T06:26:34;20.52;;;13.82;;
56073;SDS011;41950;55.840;37.442;2023-02-03T06:29:00;21.60;;;15.38;;
56073;SDS011;41950;55.840;37.442;2023-02-03T06:31:25;23.25;;;16.10;;
56073;SDS011;41950;55.840;37.442;2023-02-03T06:33:51;23.67;;;14.52;;
56073;SDS011;41950;55.840;37.442;2023-02-03T06:36:17;21.55;;;13.88;;
56073;SDS011;41950;55.840;37.442;2023-02-03T06:38:42;21.67;;;14.10;;
56073;SDS011;41950;55.840;37.442;2023-02-03T06:41:08;21.58;;;15.18;;
56073;SDS011;41950;55.840;37.442;2023-02-03T06:43:34;22.60;;;14.70;;
56073;SDS011;41950;55.840;37.442;2023-02-03T06:46:00;20.23;;;13.00;;
56073;SDS011;41950;55.840;37.442;2023-02-03T06:48:26;20.60;;;14.00;;
56073;SDS011;41950;55.840;37.442;2023-02-03T06:50:51;24.67;;;16.67;;
56073;SDS011;41950;55.840;37.442;2023-02-03T06:53:17;21.88;;;15.20;;
56073;SDS011;41950;55.840;37.442;2023-02-03T06:55:42;23.33;;;15.48;;
56073;SDS011;41950;55.840;37.442;2023-02-03T06:58:08;20.35;;;14.85;;
56073;SDS011;41950;55.840;37.442;2023-02-03T07:00:34;19.15;;;11.45;;
56073;SDS011;41950;55.840;37.442;2023-02-03T07:02:59;21.77;;;14.60;;
56073;SDS011;41950;55.840;37.442;2023-02-03T07:05:26;24.23;;;15.55;;
56073;SDS011;41950;55.840;37.442;2023-02-03T07:07:52;22.92;;;14.13;;
56073;SDS011;41950;55.840;37.442;2023-02-03T07:10:18;21.95;;;14.65;;
56073;SDS011;41950;55.840;37.442;2023-02-03T07:12:44;24.33;;;16.30;;
56073;SDS011;41950;55.840;37.442;2023-02-03T07:15:10;23.02;;;16.98;;
56073;SDS011;41950;55.840;37.442;2023-02-03T07:17:37;25.98;;;17.52;;
56073;SDS011;41950;55.840;37.442;2023-02-03T07:20:03;21.92;;;14.73;;
56073;SDS011;41950;55.840;37.442;2023-02-03T07:22:29;21.98;;;13.63;;
56073;SDS011;41950;55.840;37.442;2023-02-03T07:24:55;23.05;;;15.05;;
56073;SDS011;41950;55.840;37.442;2023-02-03T07:27:21;23.70;;;15.73;;
56073;SDS011;41950;55.840;37.442;2023-02-03T07:29:46;21.67;;;16.02;;
56073;SDS011;41950;55.840;37.442;2023-02-03T07:32:12;21.70;;;12.85;;
56073;SDS011;41950;55.840;37.442;2023-02-03T07:34:37;20.70;;;13.18;;
56073;SDS011;41950;55.840;37.442;2023-02-03T07:37:03;19.27;;;12.57;;
56073;SDS011;41950;55.840;37.442;2023-02-03T07:39:29;20.95;;;13.80;;
56073;SDS011;41950;55.840;37.442;2023-02-03T07:41:55;21.25;;;13.32;;
56073;SDS011;41950;55.840;37.442;2023-02-03T07:44:20;23.23;;;12.43;;
56073;SDS011;41950;55.840;37.442;2023-02-03T07:46:46;20.67;;;13.27;;
56073;SDS011;41950;55.840;37.442;2023-02-03T07:49:12;22.50;;;14.18;;
56073;SDS011;41950;55.840;37.442;2023-02-03T07:51:38;18.15;;;10.48;;
56073;SDS011;41950;55.840;37.442;2023-02-03T07:54:04;19.08;;;12.05;;
56073;SDS011;41950;55.840;37.442;2023-02-03T07:56:30;20.25;;;12.85;;
56073;SDS011;41950;55.840;37.442;2023-02-03T07:58:57;17.80;;;12.55;;
56073;SDS011;41950;55.840;37.442;2023-02-03T08:01:23;16.85;;;11.35;;
56073;SDS011;41950;55.840;37.442;2023-02-03T08:03:50;18.10;;;12.73;;
56073;SDS011;41950;55.840;37.442;2023-02-03T08:06:16;17.45;;;12.00;;
56073;SDS011;41950;55.840;37.442;2023-02-03T08:08:41;17.00;;;11.32;;
56073;SDS011;41950;55.840;37.442;2023-02-03T08:11:07;16.27;;;10.68;;
56073;SDS011;41950;55.840;37.442;2023-02-03T08:13:33;16.83;;;12.20;;
56073;SDS011;41950;55.840;37.442;2023-02-03T08:15:59;17.77;;;11.55;;
56073;SDS011;41950;55.840;37.442;2023-02-03T08:18:25;16.88;;;11.68;;
56073;SDS011;41950;55.840;37.442;2023-02-03T08:20:50;18.65;;;11.35;;
56073;SDS011;41950;55.840;37.442;2023-02-03T08:23:16;17.02;;;11.80;;
56073;SDS011;41950;55.840;37.442;2023-02-03T08:25:42;15.98;;;11.40;;
56073;SDS011;41950;55.840;37.442;2023-02-03T08:28:07;18.15;;;12.35;;
56073;SDS011;41950;55.840;37.442;2023-02-03T08:30:33;16.80;;;11.18;;
56073;SDS011;41950;55.840;37.442;2023-02-03T08:32:59;18.23;;;11.68;;
56073;SDS011;41950;55.840;37.442;2023-02-03T08:35:24;19.63;;;12.38;;
56073;SDS011;41950;55.840;37.442;2023-02-03T08:37:50;21.48;;;13.57;;
56073;SDS011;41950;55.840;37.442;2023-02-03T08:40:16;17.10;;;12.07;;
56073;SDS011;41950;55.840;37.442;2023-02-03T08:42:42;16.95;;;11.70;;
56073;SDS011;41950;55.840;37.442;2023-02-03T08:45:08;18.33;;;11.95;;
56073;SDS011;41950;55.840;37.442;2023-02-03T08:47:34;18.92;;;13.38;;
56073;SDS011;41950;55.840;37.442;2023-02-03T08:50:01;18.75;;;13.07;;
56073;SDS011;41950;55.840;37.442;2023-02-03T08:52:28;18.60;;;12.23;;
56073;SDS011;41950;55.840;37.442;2023-02-03T08:54:54;20.08;;;13.30;;
56073;SDS011;41950;55.840;37.442;2023-02-03T08:57:20;23.00;;;14.77;;
56073;SDS011;41950;55.840;37.442;2023-02-03T08:59:45;18.60;;;12.38;;
56073;SDS011;41950;55.840;37.442;2023-02-03T09:02:15;22.33;;;14.57;;
56073;SDS011;41950;55.840;37.442;2023-02-03T09:04:43;20.77;;;14.38;;
56073;SDS011;41950;55.840;37.442;2023-02-03T09:07:10;21.02;;;14.02;;
56073;SDS011;41950;55.840;37.442;2023-02-03T09:09:37;20.63;;;13.82;;
56073;SDS011;41950;55.840;37.442;2023-02-03T09:12:04;20.63;;;14.50;;
56073;SDS011;41950;55.840;37.442;2023-02-03T09:14:31;23.65;;;14.45;;
56073;SDS011;41950;55.840;37.442;2023-02-03T09:17:01;21.63;;;14.88;;
56073;SDS011;41950;55.840;37.442;2023-02-03T09:19:28;23.02;;;16.20;;
56073;SDS011;41950;55.840;37.442;2023-02-03T09:25:34;23.90;;;14.65;;
56073;SDS011;41950;55.840;37.442;2023-02-03T09:28:00;20.40;;;12.85;;
56073;SDS011;41950;55.840;37.442;2023-02-03T09:30:26;21.77;;;14.02;;
56073;SDS011;41950;55.840;37.442;2023-02-03T09:32:52;22.52;;;14.57;;
56073;SDS011;41950;55.840;37.442;2023-02-03T09:35:22;23.17;;;15.60;;
56073;SDS011;41950;55.840;37.442;2023-02-03T09:37:51;20.50;;;13.40;;
56073;SDS011;41950;55.840;37.442;2023-02-03T09:44:03;22.42;;;15.93;;
56073;SDS011;41950;55.840;37.442;2023-02-03T09:46:37;20.67;;;13.07;;
56073;SDS011;41950;55.840;37.442;2023-02-03T09:51:46;18.77;;;13.88;;
56073;SDS011;41950;55.840;37.442;2023-02-03T09:54:20;18.17;;;13.75;;
56073;SDS011;41950;55.840;37.442;2023-02-03T09:56:53;19.95;;;13.82;;
56073;SDS011;41950;55.840;37.442;2023-02-03T09:59:22;17.55;;;12.88;;
56073;SDS011;41950;55.840;37.442;2023-02-03T10:01:54;19.45;;;13.50;;
56073;SDS011;41950;55.840;37.442;2023-02-03T10:04:37;19.20;;;13.38;;
56073;SDS011;41950;55.840;37.442;2023-02-03T10:18:13;19.98;;;13.55;;
56073;SDS011;41950;55.840;37.442;2023-02-03T10:20:47;18.33;;;12.38;;
56073;SDS011;41950;55.840;37.442;2023-02-03T10:23:35;16.73;;;12.18;;
56073;SDS011;41950;55.840;37.442;2023-02-03T10:26:04;18.05;;;12.75;;
56073;SDS011;41950;55.840;37.442;2023-02-03T10:28:54;16.20;;;12.63;;
56073;SDS011;41950;55.840;37.442;2023-02-03T10:31:24;16.55;;;11.57;;
56073;SDS011;41950;55.840;37.442;2023-02-03T10:34:11;17.95;;;13.20;;
56073;SDS011;41950;55.840;37.442;2023-02-03T10:41:56;16.05;;;12.13;;
56073;SDS011;41950;55.840;37.442;2023-02-03T10:44:24;18.65;;;13.13;;
56073;SDS011;41950;55.840;37.442;2023-02-03T10:46:56;16.25;;;12.00;;
56073;SDS011;41950;55.840;37.442;2023-02-03T10:49:21;16.33;;;12.00;;
56073;SDS011;41950;55.840;37.442;2023-02-03T10:51:52;16.35;;;12.43;;
56073;SDS011;41950;55.840;37.442;2023-02-03T10:56:54;17.75;;;12.88;;
56073;SDS011;41950;55.840;37.442;2023-02-03T10:59:30;15.60;;;11.95;;
56073;SDS011;41950;55.840;37.442;2023-02-03T11:01:59;17.38;;;13.07;;
56073;SDS011;41950;55.840;37.442;2023-02-03T11:04:31;16.77;;;12.43;;
56073;SDS011;41950;55.840;37.442;2023-02-03T11:06:58;16.13;;;11.15;;
56073;SDS011;41950;55.840;37.442;2023-02-03T11:09:36;17.52;;;12.90;;
56073;SDS011;41950;55.840;37.442;2023-02-03T11:12:25;18.85;;;13.27;;
56073;SDS011;41950;55.840;37.442;2023-02-03T11:14:50;15.95;;;11.23;;
56073;SDS011;41950;55.840;37.442;2023-02-03T11:17:18;18.17;;;12.07;;
56073;SDS011;41950;55.840;37.442;2023-02-03T11:19:51;16.17;;;12.68;;
56073;SDS011;41950;55.840;37.442;2023-02-03T11:22:36;19.65;;;12.93;;
56073;SDS011;41950;55.840;37.442;2023-02-03T11:25:04;18.80;;;12.65;;
56073;SDS011;41950;55.840;37.442;2023-02-03T11:27:43;17.75;;;12.73;;
56073;SDS011;41950;55.840;37.442;2023-02-03T11:30:16;18.65;;;12.80;;
56073;SDS011;41950;55.840;37.442;2023-02-03T11:32:43;16.67;;;12.23;;
56073;SDS011;41950;55.840;37.442;2023-02-03T11:37:50;17.05;;;11.52;;
56073;SDS011;41950;55.840;37.442;2023-02-03T11:51:13;17.55;;;11.63;;
56073;SDS011;41950;55.840;37.442;2023-02-03T11:57:06;16.83;;;11.60;;
56073;SDS011;41950;55.840;37.442;2023-02-03T11:59:45;16.25;;;11.00;;
56073;SDS011;41950;55.840;37.442;2023-02-03T12:16:17;13.77;;;10.30;;
56073;SDS011;41950;55.840;37.442;2023-02-03T12:22:15;15.88;;;10.68;;
56073;SDS011;41950;55.840;37.442;2023-02-03T12:30:52;14.40;;;10.30;;
56073;SDS011;41950;55.840;37.442;2023-02-03T12:33:24;12.68;;;9.30;;
56073;SDS011;41950;55.840;37.442;2023-02-03T12:36:17;13.97;;;9.97;;
56073;SDS011;41950;55.840;37.442;2023-02-03T12:39:01;15.80;;;10.98;;
56073;SDS011;41950;55.840;37.442;2023-02-03T12:42:19;14.40;;;9.98;;
56073;SDS011;41950;55.840;37.442;2023-02-03T12:44:30;12.07;;;9.38;;
56073;SDS011;41950;55.840;37.442;2023-02-03T12:47:17;13.30;;;9.68;;
56073;SDS011;41950;55.840;37.442;2023-02-03T12:50:47;13.05;;;9.93;;
56073;SDS011;41950;55.840;37.442;2023-02-03T12:53:01;13.75;;;10.02;;
56073;SDS011;41950;55.840;37.442;2023-02-03T12:55:35;14.05;;;9.85;;
56073;SDS011;41950;55.840;37.442;2023-02-03T12:58:06;13.10;;;10.18;;
56073;SDS011;41950;55.840;37.442;2023-02-03T13:08:43;13.45;;;9.70;;
56073;SDS011;41950;55.840;37.442;2023-02-03T13:13:55;13.20;;;8.98;;
56073;SDS011;41950;55.840;37.442;2023-02-03T13:16:30;12.60;;;8.80;;
56073;SDS011;41950;55.840;37.442;2023-02-03T13:21:38;11.15;;;7.78;;
56073;SDS011;41950;55.840;37.442;2023-02-03T13:24:04;12.85;;;9.18;;
56073;SDS011;41950;55.840;37.442;2023-02-03T13:34:48;13.52;;;8.93;;
56073;SDS011;41950;55.840;37.442;2023-02-03T13:38:00;10.82;;;7.55;;
56073;SDS011;41950;55.840;37.442;2023-02-03T13:43:16;13.02;;;9.27;;
56073;SDS011;41950;55.840;37.442;2023-02-03T13:45:48;12.98;;;9.55;;
56073;SDS011;41950;55.840;37.442;2023-02-03T13:50:44;11.38;;;8.38;;
56073;SDS011;41950;55.840;37.442;2023-02-03T13:53:21;13.15;;;8.82;;
56073;SDS011;41950;55.840;37.442;2023-02-03T13:58:26;12.57;;;9.77;;
56073;SDS011;41950;55.840;37.442;2023-02-03T14:05:49;12.90;;;9.18;;
56073;SDS011;41950;55.840;37.442;2023-02-03T14:09:00;13.43;;;9.77;;
56073;SDS011;41950;55.840;37.442;2023-02-03T14:16:28;12.77;;;10.02;;
56073;SDS011;41950;55.840;37.442;2023-02-03T14:19:12;14.35;;;10.00;;
56073;SDS011;41950;55.840;37.442;2023-02-03T14:21:55;13.35;;;9.48;;
56073;SDS011;41950;55.840;37.442;2023-02-03T14:24:44;13.95;;;10.38;;
56073;SDS011;41950;55.840;37.442;2023-02-03T14:27:21;15.95;;;11.05;;
56073;SDS011;41950;55.840;37.442;2023-02-03T14:32:47;13.20;;;9.90;;
56073;SDS011;41950;55.840;37.442;2023-02-03T14:35:15;14.82;;;10.73;;
56073;SDS011;41950;55.840;37.442;2023-02-03T14:37:56;18.15;;;11.65;;
56073;SDS011;41950;55.840;37.442;2023-02-03T14:43:18;16.48;;;12.07;;
56073;SDS011;41950;55.840;37.442;2023-02-03T15:04:39;19.15;;;13.38;;
56073;SDS011;41950;55.840;37.442;2023-02-03T15:07:05;19.42;;;13.32;;
56073;SDS011;41950;55.840;37.442;2023-02-03T15:12:25;18.95;;;13.73;;
56073;SDS011;41950;55.840;37.442;2023-02-03T15:14:53;17.13;;;12.40;;
56073;SDS011;41950;55.840;37.442;2023-02-03T15:17:37;18.08;;;12.70;;
56073;SDS011;41950;55.840;37.442;2023-02-03T15:20:14;20.80;;;13.10;;
56073;SDS011;41950;55.840;37.442;2023-02-03T15:22:49;15.90;;;11.85;;
56073;SDS011;41950;55.840;37.442;2023-02-03T15:25:16;17.98;;;12.13;;
56073;SDS011;41950;55.840;37.442;2023-02-03T15:27:43;15.88;;;12.15;;
56073;SDS011;41950;55.840;37.442;2023-02-03T15:30:24;15.60;;;11.55;;
56073;SDS011;41950;55.840;37.442;2023-02-03T15:33:10;16.63;;;11.50;;
56073;SDS011;41950;55.840;37.442;2023-02-03T15:35:40;19.30;;;12.50;;
56073;SDS011;41950;55.840;37.442;2023-02-03T15:38:12;15.82;;;10.75;;
56073;SDS011;41950;55.840;37.442;2023-02-03T15:40:47;16.27;;;11.60;;
56073;SDS011;41950;55.840;37.442;2023-02-03T15:49:01;17.38;;;12.27;;
56073;SDS011;41950;55.840;37.442;2023-02-03T15:51:43;19.63;;;13.18;;
56073;SDS011;41950;55.840;37.442;2023-02-03T15:54:15;17.00;;;12.75;;
56073;SDS011;41950;55.840;37.442;2023-02-03T15:56:48;17.27;;;12.02;;
56073;SDS011;41950;55.840;37.442;2023-02-03T15:59:38;19.50;;;11.82;;
56073;SDS011;41950;55.840;37.442;2023-02-03T16:04:43;20.05;;;14.68;;
56073;SDS011;41950;55.840;37.442;2023-02-03T16:07:14;17.55;;;10.80;;
56073;SDS011;41950;55.840;37.442;2023-02-03T16:09:46;19.83;;;13.02;;
56073;SDS011;41950;55.840;37.442;2023-02-03T16:12:17;16.30;;;12.20;;
56073;SDS011;41950;55.840;37.442;2023-02-03T16:14:47;18.67;;;14.23;;
56073;SDS011;41950;55.840;37.442;2023-02-03T16:17:27;18.08;;;13.35;;
56073;SDS011;41950;55.840;37.442;2023-02-03T16:22:36;17.30;;;11.88;;
56073;SDS011;41950;55.840;37.442;2023-02-03T16:25:13;20.42;;;13.10;;
56073;SDS011;41950;55.840;37.442;2023-02-03T16:27:43;16.50;;;12.15;;
56073;SDS011;41950;55.840;37.442;2023-02-03T16:35:55;16.05;;;12.45;;
56073;SDS011;41950;55.840;37.442;2023-02-03T16:38:47;16.85;;;11.70;;
56073;SDS011;41950;55.840;37.442;2023-02-03T16:41:32;15.07;;;11.50;;
56073;SDS011;41950;55.840;37.442;2023-02-03T16:44:17;14.35;;;10.25;;
56073;SDS011;41950;55.840;37.442;2023-02-03T16:47:02;16.52;;;10.90;;
56073;SDS011;41950;55.840;37.442;2023-02-03T16:49:56;16.30;;;11.38;;
56073;SDS011;41950;55.840;37.442;2023-02-03T16:52:41;16.45;;;11.60;;
56073;SDS011;41950;55.840;37.442;2023-02-03T16:55:08;14.77;;;10.95;;
56073;SDS011;41950;55.840;37.442;2023-02-03T16:57:35;13.85;;;10.32;;
56073;SDS011;41950;55.840;37.442;2023-02-03T17:00:01;13.73;;;9.32;;
56073;SDS011;41950;55.840;37.442;2023-02-03T17:02:30;13.35;;;9.32;;
56073;SDS011;41950;55.840;37.442;2023-02-03T17:04:56;10.85;;;7.28;;
56073;SDS011;41950;55.840;37.442;2023-02-03T17:07:21;8.57;;;6.20;;
56073;SDS011;41950;55.840;37.442;2023-02-03T17:09:47;9.90;;;6.78;;
56073;SDS011;41950;55.840;37.442;2023-02-03T17:12:12;9.82;;;7.03;;
56073;SDS011;41950;55.840;37.442;2023-02-03T17:14:38;8.27;;;6.47;;
56073;SDS011;41950;55.840;37.442;2023-02-03T17:17:04;8.90;;;7.18;;
56073;SDS011;41950;55.840;37.442;2023-02-03T17:19:29;10.35;;;6.78;;
56073;SDS011;41950;55.840;37.442;2023-02-03T17:21:55;10.18;;;6.85;;
56073;SDS011;41950;55.840;37.442;2023-02-03T17:24:20;11.15;;;8.00;;
56073;SDS011;41950;55.840;37.442;2023-02-03T17:26:46;12.60;;;7.60;;
56073;SDS011;41950;55.840;37.442;2023-02-03T17:29:13;13.30;;;8.77;;
56073;SDS011;41950;55.840;37.442;2023-02-03T17:31:38;12.95;;;9.60;;